createdAt,value
2023-11-13T00:02:24.291Z,65.11
2023-11-13T00:04:52.019Z,65.26
2023-11-13T00:07:18.923Z,65.39
2023-11-13T00:09:45.810Z,65.05
2023-11-13T00:12:12.745Z,65.16
2023-11-13T00:14:39.627Z,65.32
2023-11-13T00:17:06.632Z,65.44
2023-11-13T00:19:33.473Z,65.12
2023-11-13T00:22:00.307Z,65.19
2023-11-13T00:24:27.144Z,65.19
2023-11-13T00:26:53.988Z,65.29
2023-11-13T00:29:21.643Z,65.44
2023-11-13T00:31:48.459Z,65.18
2023-11-13T00:34:15.314Z,65.07
2023-11-13T00:36:42.184Z,65.40
2023-11-13T00:39:11.314Z,65.17
2023-11-13T00:41:42.029Z,65.48
2023-11-13T00:44:09.088Z,65.08
2023-11-13T00:46:36.134Z,65.28
2023-11-13T00:49:03.210Z,65.25
2023-11-13T00:51:30.427Z,65.17
2023-11-13T00:53:57.881Z,65.38
2023-11-13T00:56:24.751Z,65.57
2023-11-13T00:58:51.624Z,65.36
2023-11-13T01:01:18.654Z,65.35
2023-11-13T01:03:45.667Z,65.29
2023-11-13T01:06:21.807Z,65.19
2023-11-13T01:08:48.689Z,65.18
2023-11-13T01:11:16.019Z,65.19
2023-11-13T01:13:45.546Z,65.22
2023-11-13T01:16:12.546Z,65.13
2023-11-13T01:18:39.532Z,65.08
2023-11-13T01:21:06.462Z,65.07
2023-11-13T01:23:33.299Z,65.25
2023-11-13T01:26:00.187Z,64.93
2023-11-13T01:28:27.119Z,65.13
2023-11-13T01:30:54.383Z,65.22
2023-11-13T01:33:22.953Z,64.93
2023-11-13T01:35:50.107Z,65.11
2023-11-13T01:38:36.796Z,65.17
2023-11-13T01:41:03.616Z,65.00
2023-11-13T01:43:30.410Z,65.17
2023-11-13T01:45:59.649Z,65.25
2023-11-13T01:48:28.077Z,65.36
2023-11-13T01:50:55.197Z,65.29
2023-11-13T01:53:26.779Z,64.98
2023-11-13T01:55:57.110Z,65.00
2023-11-13T01:58:24.830Z,65.08
2023-11-13T02:00:51.978Z,65.11
2023-11-13T02:03:20.307Z,65.22
2023-11-13T02:05:48.300Z,65.19
2023-11-13T02:08:15.175Z,65.02
2023-11-13T02:10:43.003Z,64.61
2023-11-13T02:13:12.941Z,64.71
2023-11-13T02:15:41.692Z,64.62
2023-11-13T02:18:08.850Z,64.81
2023-11-13T02:20:36.068Z,64.87
2023-11-13T02:23:03.449Z,64.65
2023-11-13T02:25:37.869Z,64.91
2023-11-13T02:28:06.305Z,64.81
2023-11-13T02:30:40.825Z,64.60
2023-11-13T02:33:07.845Z,64.59
2023-11-13T02:35:34.845Z,64.80
2023-11-13T02:38:01.724Z,64.65
2023-11-13T02:40:28.905Z,64.74
2023-11-13T02:42:55.968Z,64.96
2023-11-13T02:45:27.126Z,64.80
2023-11-13T02:47:54.948Z,65.02
2023-11-13T02:50:22.460Z,64.93
2023-11-13T02:52:49.797Z,64.73
2023-11-13T02:55:17.283Z,64.97
2023-11-13T02:57:44.139Z,64.81
2023-11-13T03:00:11.985Z,65.22
2023-11-13T03:02:39.205Z,65.21
2023-11-13T03:05:06.957Z,65.41
2023-11-13T03:07:33.844Z,65.21
2023-11-13T03:10:04.519Z,65.32
2023-11-13T03:12:31.416Z,65.00
2023-11-13T03:14:58.480Z,65.54
2023-11-13T03:17:25.372Z,65.73
2023-11-13T03:19:52.206Z,65.51
2023-11-13T03:22:19.125Z,65.51
2023-11-13T03:24:47.710Z,65.37
2023-11-13T03:27:14.781Z,65.31
2023-11-13T03:29:41.667Z,65.54
2023-11-13T03:32:10.321Z,65.19
2023-11-13T03:34:37.608Z,65.48
2023-11-13T03:37:04.864Z,65.46
2023-11-13T03:39:31.737Z,65.55
2023-11-13T03:41:58.644Z,65.35
2023-11-13T03:44:25.454Z,65.19
2023-11-13T03:46:52.989Z,65.69
2023-11-13T03:49:20.115Z,65.58
2023-11-13T03:51:47.753Z,65.33
2023-11-13T03:54:14.657Z,65.31
2023-11-13T03:56:41.504Z,65.37
2023-11-13T03:59:08.389Z,65.51
2023-11-13T04:01:35.299Z,65.41
2023-11-13T04:04:02.613Z,65.39
2023-11-13T04:06:29.603Z,65.51
2023-11-13T04:08:56.640Z,65.47
2023-11-13T04:11:23.481Z,65.32
2023-11-13T04:13:50.313Z,65.59
2023-11-13T04:16:17.269Z,65.43
2023-11-13T04:18:44.130Z,65.22
2023-11-13T04:21:10.950Z,65.12
2023-11-13T04:23:38.359Z,65.24
2023-11-13T04:26:05.562Z,65.15
2023-11-13T04:28:36.476Z,64.96
2023-11-13T04:31:05.311Z,65.14
2023-11-13T04:33:32.208Z,65.03
2023-11-13T04:36:02.503Z,64.95
2023-11-13T04:38:29.744Z,64.98
2023-11-13T04:40:56.637Z,65.24
2023-11-13T04:43:23.626Z,65.53
2023-11-13T04:45:51.150Z,65.27
2023-11-13T04:48:18.042Z,64.99
2023-11-13T04:50:44.853Z,65.16
2023-11-13T04:53:11.669Z,65.51
2023-11-13T04:55:38.575Z,65.29
2023-11-13T04:58:05.428Z,65.48
2023-11-13T05:00:32.303Z,65.37
2023-11-13T05:02:59.121Z,65.38
2023-11-13T05:05:30.402Z,65.49
2023-11-13T05:07:57.259Z,65.68
2023-11-13T05:10:24.124Z,65.78
2023-11-13T05:12:51.185Z,65.69
2023-11-13T05:15:18.102Z,65.48
2023-11-13T05:17:44.936Z,65.72
2023-11-13T05:20:12.012Z,65.82
2023-11-13T05:22:39.146Z,65.62
2023-11-13T05:25:06.484Z,65.63
2023-11-13T05:27:33.403Z,65.56
2023-11-13T05:30:00.475Z,65.58
2023-11-13T05:32:27.486Z,65.39
2023-11-13T05:34:54.395Z,65.50
2023-11-13T05:37:21.264Z,65.55
2023-11-13T05:39:48.119Z,65.21
2023-11-13T05:42:14.971Z,65.56
2023-11-13T05:44:41.800Z,65.39
2023-11-13T05:47:10.137Z,65.35
2023-11-13T05:49:37.699Z,65.58
2023-11-13T05:52:04.975Z,65.68
2023-11-13T05:54:31.782Z,65.70
2023-11-13T05:56:58.628Z,65.67
2023-11-13T05:59:25.488Z,65.36
2023-11-13T06:01:52.358Z,65.66
2023-11-13T06:04:19.528Z,65.53
2023-11-13T06:06:48.056Z,65.93
2023-11-13T06:09:15.081Z,65.62
2023-11-13T06:11:42.025Z,65.71
2023-11-13T06:14:09.073Z,65.65
2023-11-13T06:16:36.131Z,65.79
2023-11-13T06:19:03.800Z,65.92
2023-11-13T06:21:30.710Z,65.82
2023-11-13T06:23:57.520Z,65.81
2023-11-13T06:26:24.331Z,65.91
2023-11-13T06:28:51.993Z,65.92
2023-11-13T06:31:24.972Z,66.13
2023-11-13T06:33:54.150Z,65.88
2023-11-13T06:36:21.036Z,66.03
2023-11-13T06:38:48.798Z,66.19
2023-11-13T06:41:15.882Z,66.07
2023-11-13T06:43:43.070Z,65.95
2023-11-13T06:46:10.224Z,66.35
2023-11-13T06:48:38.405Z,66.18
2023-11-13T06:51:09.738Z,66.24
2023-11-13T06:53:37.563Z,65.93
2023-11-13T06:56:05.090Z,66.34
2023-11-13T06:58:35.381Z,66.34
2023-11-13T07:01:05.283Z,66.05
2023-11-13T07:03:32.348Z,66.27
2023-11-13T07:06:00.105Z,66.10
2023-11-13T07:08:27.849Z,66.06
2023-11-13T07:10:55.303Z,66.39
2023-11-13T07:13:22.154Z,66.23
2023-11-13T07:15:49.111Z,66.52
2023-11-13T07:18:18.365Z,66.51
2023-11-13T07:20:47.145Z,66.50
2023-11-13T07:23:18.512Z,66.26
2023-11-13T07:25:46.674Z,66.62
2023-11-13T07:28:16.543Z,66.63
2023-11-13T07:30:43.875Z,66.57
2023-11-13T07:33:10.838Z,66.61
2023-11-13T07:35:39.314Z,66.48
2023-11-13T07:38:08.790Z,66.86
2023-11-13T07:40:37.140Z,66.83
2023-11-13T07:43:04.608Z,66.68
2023-11-13T07:45:33.092Z,66.54
2023-11-13T07:47:59.937Z,66.72
2023-11-13T07:50:29.237Z,66.90
2023-11-13T07:52:56.120Z,66.80
2023-11-13T07:55:24.070Z,67.11
2023-11-13T07:57:52.149Z,67.23
2023-11-13T08:00:24.721Z,67.08
2023-11-13T08:02:52.209Z,67.07
2023-11-13T08:05:23.083Z,66.96
2023-11-13T08:07:51.288Z,67.39
2023-11-13T08:10:18.355Z,66.81
2023-11-13T08:12:50.791Z,67.23
2023-11-13T08:15:18.132Z,67.08
2023-11-13T08:17:47.070Z,67.27
2023-11-13T08:20:16.069Z,67.35
2023-11-13T08:22:48.229Z,67.47
2023-11-13T08:25:17.093Z,67.62
2023-11-13T08:27:44.836Z,67.75
2023-11-13T08:30:15.415Z,67.77
2023-11-13T08:32:43.452Z,67.76
2023-11-13T08:35:14.856Z,67.75
2023-11-13T08:37:47.548Z,67.41
2023-11-13T08:40:24.690Z,67.76
2023-11-13T08:42:54.849Z,67.85
2023-11-13T08:45:22.205Z,68.02
2023-11-13T08:47:52.359Z,67.78
2023-11-13T08:50:22.288Z,67.74
2023-11-13T08:52:50.734Z,67.73
2023-11-13T08:55:18.796Z,68.33
2023-11-13T08:57:48.703Z,67.91
2023-11-13T09:00:22.334Z,68.14
2023-11-13T09:02:50.794Z,68.05
2023-11-13T09:05:20.190Z,68.17
2023-11-13T09:07:48.150Z,68.30
2023-11-13T09:10:17.474Z,68.39
2023-11-13T09:12:45.177Z,68.43
2023-11-13T09:15:15.640Z,68.35
2023-11-13T09:17:46.867Z,68.54
2023-11-13T09:20:20.702Z,68.44
2023-11-13T09:22:52.168Z,68.77
2023-11-13T09:25:20.270Z,69.07
2023-11-13T09:27:49.616Z,68.99
2023-11-13T09:30:19.558Z,68.66
2023-11-13T09:32:49.348Z,68.74
2023-11-13T09:35:25.450Z,68.55
2023-11-13T09:37:54.981Z,68.61
2023-11-13T09:40:25.156Z,68.52
2023-11-13T09:43:36.308Z,68.67
2023-11-13T09:46:07.756Z,68.77
2023-11-13T09:48:47.517Z,68.30
2023-11-13T09:51:29.682Z,68.25
2023-11-13T09:53:59.873Z,68.49
2023-11-13T09:56:31.766Z,68.15
2023-11-13T09:59:00.742Z,68.25
2023-11-13T10:01:28.329Z,68.54
2023-11-13T10:03:55.284Z,68.47
2023-11-13T10:06:23.793Z,68.07
2023-11-13T10:08:52.470Z,68.27
2023-11-13T10:11:21.752Z,68.04
2023-11-13T10:13:49.176Z,68.03
2023-11-13T10:16:21.840Z,67.73
2023-11-13T10:18:52.232Z,67.98
2023-11-13T10:21:34.562Z,67.86
2023-11-13T10:24:33.962Z,67.99
2023-11-13T10:27:13.563Z,67.57
2023-11-13T10:29:40.621Z,67.68
2023-11-13T10:32:08.211Z,67.52
2023-11-13T10:34:46.549Z,67.53
2023-11-13T10:37:17.204Z,67.43
2023-11-13T10:39:44.990Z,67.49
2023-11-13T10:42:26.408Z,67.21
2023-11-13T10:44:57.308Z,67.32
2023-11-13T10:47:32.086Z,67.52
2023-11-13T10:50:01.256Z,67.29
2023-11-13T10:52:30.455Z,67.13
2023-11-13T10:55:02.727Z,67.52
2023-11-13T10:57:30.026Z,67.58
2023-11-13T10:59:57.359Z,67.58
2023-11-13T11:02:36.265Z,67.11
2023-11-13T11:05:12.332Z,67.67
2023-11-13T11:07:40.006Z,67.83
2023-11-13T11:10:08.995Z,67.73
2023-11-13T11:13:01.445Z,67.89
2023-11-13T11:15:53.964Z,67.91
2023-11-13T11:19:01.235Z,67.98
2023-11-13T11:21:47.191Z,68.37
2023-11-13T11:24:45.555Z,68.18
2023-11-13T11:27:42.074Z,68.07
2023-11-13T11:30:24.121Z,68.05
2023-11-13T11:32:56.331Z,68.24
2023-11-13T11:35:25.941Z,68.48
2023-11-13T11:38:28.457Z,68.48
2023-11-13T11:40:59.681Z,68.52
2023-11-13T11:43:33.256Z,68.85
2023-11-13T11:46:00.374Z,68.73
2023-11-13T11:48:28.466Z,68.64
2023-11-13T11:51:04.653Z,68.82
2023-11-13T11:53:31.615Z,68.95
2023-11-13T11:55:59.664Z,69.07
2023-11-13T11:58:28.783Z,68.95
2023-11-13T12:00:56.804Z,68.92
2023-11-13T12:03:25.988Z,69.15
2023-11-13T12:05:52.924Z,69.40
2023-11-13T12:08:19.842Z,69.21
2023-11-13T12:10:46.973Z,68.97
2023-11-13T12:13:14.002Z,69.00
2023-11-13T12:15:43.202Z,69.22
2023-11-13T12:18:10.121Z,68.95
2023-11-13T12:20:37.012Z,69.14
2023-11-13T12:23:04.016Z,69.42
2023-11-13T12:25:33.274Z,69.29
2023-11-13T12:28:00.189Z,69.19
2023-11-13T12:30:27.948Z,69.46
2023-11-13T12:32:56.296Z,69.61
2023-11-13T12:35:23.533Z,69.44
2023-11-13T12:37:52.204Z,69.55
2023-11-13T12:40:21.324Z,69.73
2023-11-13T12:42:48.628Z,69.85
2023-11-13T12:45:18.425Z,70.09
2023-11-13T12:47:51.620Z,69.72
2023-11-13T12:50:22.585Z,69.98
2023-11-13T12:52:55.631Z,70.04
2023-11-13T12:55:24.502Z,69.77
2023-11-13T12:57:54.974Z,69.94
2023-11-13T13:00:22.133Z,70.12
2023-11-13T13:02:54.839Z,70.20
2023-11-13T13:05:31.161Z,70.17
2023-11-13T13:08:02.849Z,69.93
2023-11-13T13:10:33.962Z,69.86
2023-11-13T13:13:02.225Z,69.97
2023-11-13T13:15:29.605Z,70.10
2023-11-13T13:17:59.205Z,70.00
2023-11-13T13:20:33.816Z,70.03
2023-11-13T13:23:01.539Z,69.79
2023-11-13T13:25:36.677Z,70.07
2023-11-13T13:28:05.986Z,70.33
2023-11-13T13:30:34.967Z,70.28
2023-11-13T13:33:11.317Z,70.18
2023-11-13T13:35:39.827Z,70.11
2023-11-13T13:38:07.361Z,70.17
2023-11-13T13:40:37.615Z,69.87
2023-11-13T13:43:04.482Z,70.18
2023-11-13T13:45:31.462Z,70.16
2023-11-13T13:47:58.586Z,70.16
2023-11-13T13:50:26.080Z,70.05
2023-11-13T13:52:57.213Z,69.98
2023-11-13T13:55:28.392Z,70.07
2023-11-13T13:57:57.961Z,70.32
2023-11-13T14:00:34.056Z,70.39
2023-11-13T14:03:11.487Z,70.34
2023-11-13T14:05:42.803Z,70.18
2023-11-13T14:08:15.589Z,70.25
2023-11-13T14:10:44.428Z,70.46
2023-11-13T14:13:14.488Z,70.40
2023-11-13T14:15:54.670Z,70.19
2023-11-13T14:18:32.830Z,70.23
2023-11-13T14:21:01.745Z,70.30
2023-11-13T14:23:29.424Z,70.38
2023-11-13T14:25:56.753Z,70.24
2023-11-13T14:28:24.241Z,70.64
2023-11-13T14:30:51.382Z,70.59
2023-11-13T14:33:19.730Z,70.45
2023-11-13T14:35:46.986Z,70.57
2023-11-13T14:38:14.489Z,70.50
2023-11-13T14:40:41.746Z,70.53
2023-11-13T14:43:08.746Z,70.70
2023-11-13T14:45:35.602Z,70.59
2023-11-13T14:48:03.027Z,70.51
2023-11-13T14:50:32.274Z,70.80
2023-11-13T14:52:59.344Z,70.97
2023-11-13T14:55:27.601Z,70.81
2023-11-13T14:57:55.245Z,70.71
2023-11-13T15:00:24.434Z,70.68
2023-11-13T15:02:53.722Z,70.73
2023-11-13T15:05:22.127Z,70.71
2023-11-13T15:07:50.055Z,71.12
2023-11-13T15:10:18.812Z,70.74
2023-11-13T15:12:47.355Z,70.87
2023-11-13T15:15:20.772Z,71.09
2023-11-13T15:17:48.637Z,71.04
2023-11-13T15:20:19.419Z,71.20
2023-11-13T15:23:08.772Z,70.99
2023-11-13T15:25:39.594Z,71.35
2023-11-13T15:28:07.347Z,71.50
2023-11-13T15:30:34.173Z,71.10
2023-11-13T15:33:04.953Z,71.38
2023-11-13T15:35:32.153Z,71.48
2023-11-13T15:37:59.117Z,71.53
2023-11-13T15:40:26.045Z,71.68
2023-11-13T15:42:52.943Z,71.69
2023-11-13T15:45:20.038Z,71.30
2023-11-13T15:47:47.036Z,71.65
2023-11-13T15:50:17.854Z,71.69
2023-11-13T15:52:45.273Z,71.51
2023-11-13T15:55:12.868Z,71.92
2023-11-13T15:57:40.884Z,71.84
2023-11-13T16:00:13.889Z,71.94
2023-11-13T16:02:41.537Z,71.75
2023-11-13T16:05:10.411Z,71.84
2023-11-13T16:07:37.827Z,71.72
2023-11-13T16:10:05.538Z,72.07
2023-11-13T16:12:32.538Z,72.20
2023-11-13T16:15:00.289Z,72.07
2023-11-13T16:17:30.615Z,71.89
2023-11-13T16:19:57.664Z,71.84
2023-11-13T16:22:24.702Z,71.83
2023-11-13T16:24:51.589Z,71.80
2023-11-13T16:27:18.525Z,72.04
2023-11-13T16:29:45.321Z,71.86
2023-11-13T16:32:13.238Z,72.11
2023-11-13T16:34:40.402Z,72.10
2023-11-13T16:37:09.554Z,71.93
2023-11-13T16:39:36.581Z,71.76
2023-11-13T16:42:04.524Z,71.84
2023-11-13T16:44:31.378Z,71.81
2023-11-13T16:46:59.422Z,71.91
2023-11-13T16:49:26.273Z,71.99
2023-11-13T16:51:53.120Z,72.00
2023-11-13T16:54:23.395Z,72.05
2023-11-13T16:56:51.387Z,71.99
2023-11-13T16:59:19.325Z,72.11
2023-11-13T17:01:48.467Z,71.97
2023-11-13T17:04:15.346Z,71.70
2023-11-13T17:06:42.630Z,71.79
2023-11-13T17:09:09.667Z,72.07
2023-11-13T17:11:36.538Z,71.90
2023-11-13T17:14:03.421Z,71.93
2023-11-13T17:16:30.314Z,72.18
2023-11-13T17:18:57.384Z,72.03
2023-11-13T17:21:24.376Z,72.24
2023-11-13T17:23:51.572Z,72.20
2023-11-13T17:26:18.766Z,71.98
2023-11-13T17:28:46.428Z,72.49
2023-11-13T17:31:13.327Z,72.13
2023-11-13T17:33:41.083Z,72.04
2023-11-13T17:36:08.643Z,72.04
2023-11-13T17:38:35.605Z,71.92
2023-11-13T17:41:02.783Z,71.87
2023-11-13T17:43:29.816Z,72.04
2023-11-13T17:45:58.923Z,72.00
2023-11-13T17:48:26.342Z,72.11
2023-11-13T17:50:53.462Z,72.01
2023-11-13T17:53:21.265Z,71.86
2023-11-13T17:55:48.197Z,72.00
2023-11-13T17:58:15.139Z,72.07
2023-11-13T18:00:42.030Z,71.97
2023-11-13T18:03:09.027Z,71.96
2023-11-13T18:05:37.751Z,72.25
2023-11-13T18:08:05.067Z,72.34
2023-11-13T18:10:32.071Z,72.33
2023-11-13T18:12:58.942Z,72.28
2023-11-13T18:15:26.122Z,72.35
2023-11-13T18:17:53.556Z,72.16
2023-11-13T18:20:20.649Z,72.26
2023-11-13T18:22:50.688Z,72.34
2023-11-13T18:25:17.736Z,72.51
2023-11-13T18:27:46.257Z,72.37
2023-11-13T18:30:14.474Z,72.10
2023-11-13T18:32:42.460Z,72.51
2023-11-13T18:35:10.241Z,72.57
2023-11-13T18:37:40.398Z,72.69
2023-11-13T18:40:09.734Z,72.75
2023-11-13T18:42:37.530Z,72.94
2023-11-13T18:45:06.187Z,72.98
2023-11-13T18:47:34.086Z,72.93
2023-11-13T18:50:01.375Z,72.93
2023-11-13T18:52:28.685Z,73.19
2023-11-13T18:54:56.433Z,73.22
2023-11-13T18:57:23.811Z,72.94
2023-11-13T18:59:50.954Z,73.22
2023-11-13T19:02:17.976Z,73.33
2023-11-13T19:04:45.292Z,73.37
2023-11-13T19:07:13.780Z,73.42
2023-11-13T19:09:41.187Z,73.37
2023-11-13T19:12:10.587Z,73.33
2023-11-13T19:14:38.307Z,73.34
2023-11-13T19:17:07.031Z,73.19
2023-11-13T19:19:34.212Z,73.30
2023-11-13T19:22:02.250Z,73.29
2023-11-13T19:24:30.536Z,73.13
2023-11-13T19:26:57.368Z,73.17
2023-11-13T19:29:24.239Z,73.24
2023-11-13T19:31:51.991Z,73.05
2023-11-13T19:34:19.147Z,73.21
2023-11-13T19:36:47.295Z,73.08
2023-11-13T19:39:14.579Z,73.42
2023-11-13T19:41:42.602Z,73.22
2023-11-13T19:44:09.543Z,73.31
2023-11-13T19:46:37.330Z,73.22
2023-11-13T19:49:08.749Z,73.12
2023-11-13T19:51:35.716Z,73.17
2023-11-13T19:54:02.522Z,73.04
2023-11-13T19:56:29.465Z,73.27
2023-11-13T19:58:56.582Z,73.23
2023-11-13T20:01:23.791Z,73.07
2023-11-13T20:03:52.916Z,73.17
2023-11-13T20:06:19.899Z,73.22
2023-11-13T20:08:50.030Z,72.91
2023-11-13T20:11:20.437Z,72.69
2023-11-13T20:13:47.572Z,72.93
2023-11-13T20:16:14.620Z,72.85
2023-11-13T20:18:41.512Z,72.88
2023-11-13T20:21:10.566Z,72.93
2023-11-13T20:23:38.557Z,72.77
2023-11-13T20:26:07.055Z,72.81
2023-11-13T20:28:34.881Z,72.68
2023-11-13T20:31:02.306Z,72.53
2023-11-13T20:33:29.505Z,72.74
2023-11-13T20:35:56.931Z,72.63
2023-11-13T20:38:24.009Z,72.78
2023-11-13T20:40:52.502Z,72.69
2023-11-13T20:43:20.407Z,72.54
2023-11-13T20:45:48.130Z,72.33
2023-11-13T20:48:15.118Z,72.43
2023-11-13T20:50:42.004Z,72.08
2023-11-13T20:53:09.947Z,72.05
2023-11-13T20:55:36.879Z,72.19
2023-11-13T20:58:06.641Z,72.21
2023-11-13T21:00:33.469Z,71.97
2023-11-13T21:03:00.384Z,72.17
2023-11-13T21:05:27.249Z,71.99
2023-11-13T21:07:54.733Z,72.00
2023-11-13T21:10:21.844Z,71.95
2023-11-13T21:12:48.850Z,72.00
2023-11-13T21:15:15.737Z,72.26
2023-11-13T21:17:45.024Z,71.89
2023-11-13T21:20:12.621Z,72.08
2023-11-13T21:22:41.521Z,72.21
2023-11-13T21:25:11.743Z,72.04
2023-11-13T21:27:39.615Z,72.23
2023-11-13T21:30:08.956Z,72.22
2023-11-13T21:32:35.954Z,72.11
2023-11-13T21:35:04.932Z,72.18
2023-11-13T21:37:32.201Z,72.25
2023-11-13T21:39:59.343Z,71.87
2023-11-13T21:42:26.792Z,71.88
2023-11-13T21:44:54.148Z,71.72
2023-11-13T21:47:21.284Z,71.70
2023-11-13T21:49:48.249Z,71.52
2023-11-13T21:52:15.776Z,71.47
2023-11-13T21:54:43.554Z,71.42
2023-11-13T21:57:11.737Z,71.48
2023-11-13T21:59:42.118Z,71.36
2023-11-13T22:02:10.165Z,71.22
2023-11-13T22:04:37.328Z,71.39
2023-11-13T22:07:04.460Z,71.28
2023-11-13T22:09:32.699Z,71.10
2023-11-13T22:11:59.508Z,71.46
2023-11-13T22:14:26.391Z,71.35
2023-11-13T22:17:00.180Z,71.33
2023-11-13T22:19:28.422Z,71.28
2023-11-13T22:21:55.628Z,71.15
2023-11-13T22:24:24.565Z,71.07
2023-11-13T22:26:51.400Z,70.98
2023-11-13T22:29:18.244Z,70.91
2023-11-13T22:31:45.097Z,71.01
2023-11-13T22:34:12.116Z,70.66
2023-11-13T22:36:41.320Z,70.84
2023-11-13T22:39:08.501Z,70.60
2023-11-13T22:41:35.355Z,70.76
2023-11-13T22:44:02.256Z,70.69
2023-11-13T22:46:29.362Z,70.66
2023-11-13T22:48:56.940Z,70.53
2023-11-13T22:51:23.949Z,70.41
2023-11-13T22:53:50.793Z,70.34
2023-11-13T22:56:17.658Z,70.45
2023-11-13T22:58:48.169Z,70.44
2023-11-13T23:01:15.030Z,70.45
2023-11-13T23:03:43.741Z,70.44
2023-11-13T23:06:10.626Z,70.41
2023-11-13T23:08:37.636Z,70.56
2023-11-13T23:11:05.018Z,70.37
2023-11-13T23:13:31.907Z,70.43
2023-11-13T23:15:58.732Z,70.03
2023-11-13T23:18:25.614Z,70.26
2023-11-13T23:20:52.457Z,70.19
2023-11-13T23:23:19.397Z,70.23
2023-11-13T23:25:49.348Z,70.22
2023-11-13T23:28:17.320Z,69.98
2023-11-13T23:30:44.671Z,70.15
2023-11-13T23:33:12.877Z,70.16
2023-11-13T23:35:39.787Z,70.12
2023-11-13T23:38:06.731Z,69.86
2023-11-13T23:40:34.648Z,69.79
2023-11-13T23:43:02.397Z,69.81
2023-11-13T23:45:30.235Z,70.03
2023-11-13T23:47:57.959Z,69.51
2023-11-13T23:50:24.926Z,69.80
2023-11-13T23:52:51.747Z,69.65
2023-11-13T23:55:18.694Z,69.74
2023-11-13T23:57:45.506Z,69.60
